sensor_id;sensor_type;location;lat;lon;timestamp;P1;durP1;ratioP1;P2;durP2;ratioP2
51612;SDS011;37694;51.748;14.326;2023-11-21T00:00:54;6.93;;;4.72;;
51612;SDS011;37694;51.748;14.326;2023-11-21T00:03:20;6.72;;;4.95;;
51612;SDS011;37694;51.748;14.326;2023-11-21T00:05:48;5.53;;;4.78;;
51612;SDS011;37694;51.748;14.326;2023-11-21T00:08:14;8.15;;;5.28;;
51612;SDS011;37694;51.748;14.326;2023-11-21T00:10:40;5.72;;;4.65;;
51612;SDS011;37694;51.748;14.326;2023-11-21T00:13:05;5.00;;;4.38;;
51612;SDS011;37694;51.748;14.326;2023-11-21T00:15:31;6.43;;;5.20;;
51612;SDS011;37694;51.748;14.326;2023-11-21T00:17:57;5.35;;;4.72;;
51612;SDS011;37694;51.748;14.326;2023-11-21T00:20:22;6.05;;;5.32;;
51612;SDS011;37694;51.748;14.326;2023-11-21T00:22:48;7.10;;;5.38;;
51612;SDS011;37694;51.748;14.326;2023-11-21T00:25:14;6.10;;;4.85;;
51612;SDS011;37694;51.748;14.326;2023-11-21T00:27:41;5.85;;;5.22;;
51612;SDS011;37694;51.748;14.326;2023-11-21T00:30:07;5.35;;;4.55;;
51612;SDS011;37694;51.748;14.326;2023-11-21T00:32:35;9.43;;;5.35;;
51612;SDS011;37694;51.748;14.326;2023-11-21T00:35:01;6.18;;;4.72;;
51612;SDS011;37694;51.748;14.326;2023-11-21T00:37:27;7.05;;;5.30;;
51612;SDS011;37694;51.748;14.326;2023-11-21T00:39:53;5.57;;;5.07;;
51612;SDS011;37694;51.748;14.326;2023-11-21T00:42:19;6.20;;;5.20;;
51612;SDS011;37694;51.748;14.326;2023-11-21T00:44:44;7.65;;;5.43;;
51612;SDS011;37694;51.748;14.326;2023-11-21T00:47:10;8.02;;;5.72;;
51612;SDS011;37694;51.748;14.326;2023-11-21T00:49:36;5.50;;;5.00;;
51612;SDS011;37694;51.748;14.326;2023-11-21T00:52:01;6.28;;;4.88;;
51612;SDS011;37694;51.748;14.326;2023-11-21T00:54:27;5.78;;;4.75;;
51612;SDS011;37694;51.748;14.326;2023-11-21T00:56:53;7.00;;;5.25;;
51612;SDS011;37694;51.748;14.326;2023-11-21T00:59:19;6.65;;;5.95;;
51612;SDS011;37694;51.748;14.326;2023-11-21T01:01:44;7.32;;;5.90;;
51612;SDS011;37694;51.748;14.326;2023-11-21T01:04:10;6.00;;;5.35;;
51612;SDS011;37694;51.748;14.326;2023-11-21T01:06:36;9.90;;;5.57;;
51612;SDS011;37694;51.748;14.326;2023-11-21T01:09:02;6.45;;;5.20;;
51612;SDS011;37694;51.748;14.326;2023-11-21T01:11:33;6.15;;;5.13;;
51612;SDS011;37694;51.748;14.326;2023-11-21T01:14:02;7.03;;;5.30;;
51612;SDS011;37694;51.748;14.326;2023-11-21T01:16:29;7.30;;;4.80;;
51612;SDS011;37694;51.748;14.326;2023-11-21T01:18:57;5.22;;;4.72;;
51612;SDS011;37694;51.748;14.326;2023-11-21T01:21:24;6.22;;;5.25;;
51612;SDS011;37694;51.748;14.326;2023-11-21T01:23:50;8.60;;;5.20;;
51612;SDS011;37694;51.748;14.326;2023-11-21T01:26:15;6.38;;;4.88;;
51612;SDS011;37694;51.748;14.326;2023-11-21T01:28:41;8.98;;;5.55;;
51612;SDS011;37694;51.748;14.326;2023-11-21T01:31:07;7.38;;;4.90;;
51612;SDS011;37694;51.748;14.326;2023-11-21T01:33:32;6.65;;;5.30;;
51612;SDS011;37694;51.748;14.326;2023-11-21T01:35:58;6.88;;;5.38;;
51612;SDS011;37694;51.748;14.326;2023-11-21T01:38:25;6.00;;;5.40;;
51612;SDS011;37694;51.748;14.326;2023-11-21T01:40:51;6.40;;;5.35;;
51612;SDS011;37694;51.748;14.326;2023-11-21T01:43:16;5.88;;;4.45;;
51612;SDS011;37694;51.748;14.326;2023-11-21T01:45:42;6.28;;;5.22;;
51612;SDS011;37694;51.748;14.326;2023-11-21T01:48:10;6.93;;;5.53;;
51612;SDS011;37694;51.748;14.326;2023-11-21T01:50:35;5.15;;;4.65;;
51612;SDS011;37694;51.748;14.326;2023-11-21T01:53:01;7.10;;;5.03;;
51612;SDS011;37694;51.748;14.326;2023-11-21T01:55:28;7.50;;;5.00;;
51612;SDS011;37694;51.748;14.326;2023-11-21T01:57:55;5.32;;;4.82;;
51612;SDS011;37694;51.748;14.326;2023-11-21T02:00:22;6.38;;;4.85;;
51612;SDS011;37694;51.748;14.326;2023-11-21T02:02:48;5.70;;;5.05;;
51612;SDS011;37694;51.748;14.326;2023-11-21T02:05:14;5.75;;;5.13;;
51612;SDS011;37694;51.748;14.326;2023-11-21T02:07:43;5.93;;;5.22;;
51612;SDS011;37694;51.748;14.326;2023-11-21T02:10:10;5.78;;;4.65;;
51612;SDS011;37694;51.748;14.326;2023-11-21T02:12:39;6.50;;;5.10;;
51612;SDS011;37694;51.748;14.326;2023-11-21T02:15:12;6.38;;;5.13;;
51612;SDS011;37694;51.748;14.326;2023-11-21T02:17:46;5.85;;;5.35;;
51612;SDS011;37694;51.748;14.326;2023-11-21T02:20:12;6.35;;;4.55;;
51612;SDS011;37694;51.748;14.326;2023-11-21T02:22:43;6.05;;;5.30;;
51612;SDS011;37694;51.748;14.326;2023-11-21T02:25:28;6.93;;;5.07;;
51612;SDS011;37694;51.748;14.326;2023-11-21T02:28:02;5.53;;;4.90;;
51612;SDS011;37694;51.748;14.326;2023-11-21T02:30:29;5.35;;;4.85;;
51612;SDS011;37694;51.748;14.326;2023-11-21T02:32:56;5.18;;;4.68;;
51612;SDS011;37694;51.748;14.326;2023-11-21T02:35:22;5.40;;;4.85;;
51612;SDS011;37694;51.748;14.326;2023-11-21T02:37:51;6.18;;;4.88;;
51612;SDS011;37694;51.748;14.326;2023-11-21T02:40:17;5.55;;;4.80;;
51612;SDS011;37694;51.748;14.326;2023-11-21T02:42:43;4.93;;;4.53;;
51612;SDS011;37694;51.748;14.326;2023-11-21T02:45:09;5.82;;;5.22;;
51612;SDS011;37694;51.748;14.326;2023-11-21T02:47:38;6.07;;;4.82;;
51612;SDS011;37694;51.748;14.326;2023-11-21T02:50:04;5.97;;;5.30;;
51612;SDS011;37694;51.748;14.326;2023-11-21T02:52:32;5.35;;;4.85;;
51612;SDS011;37694;51.748;14.326;2023-11-21T02:54:58;5.35;;;4.82;;
51612;SDS011;37694;51.748;14.326;2023-11-21T02:57:24;5.10;;;4.60;;
51612;SDS011;37694;51.748;14.326;2023-11-21T02:59:50;6.75;;;5.05;;
51612;SDS011;37694;51.748;14.326;2023-11-21T03:02:16;5.45;;;4.75;;
51612;SDS011;37694;51.748;14.326;2023-11-21T03:04:42;6.90;;;5.13;;
51612;SDS011;37694;51.748;14.326;2023-11-21T03:07:08;6.15;;;4.82;;
51612;SDS011;37694;51.748;14.326;2023-11-21T03:09:34;6.05;;;4.93;;
51612;SDS011;37694;51.748;14.326;2023-11-21T03:12:00;6.18;;;4.85;;
51612;SDS011;37694;51.748;14.326;2023-11-21T03:14:26;5.90;;;5.28;;
51612;SDS011;37694;51.748;14.326;2023-11-21T03:16:52;6.68;;;4.97;;
51612;SDS011;37694;51.748;14.326;2023-11-21T03:19:17;4.85;;;4.35;;
51612;SDS011;37694;51.748;14.326;2023-11-21T03:21:43;5.60;;;4.72;;
51612;SDS011;37694;51.748;14.326;2023-11-21T03:24:08;8.20;;;5.50;;
51612;SDS011;37694;51.748;14.326;2023-11-21T03:26:34;4.75;;;4.35;;
51612;SDS011;37694;51.748;14.326;2023-11-21T03:29:00;4.85;;;4.20;;
51612;SDS011;37694;51.748;14.326;2023-11-21T03:31:25;4.70;;;4.30;;
51612;SDS011;37694;51.748;14.326;2023-11-21T03:33:51;4.97;;;4.38;;
51612;SDS011;37694;51.748;14.326;2023-11-21T03:36:19;6.03;;;4.80;;
51612;SDS011;37694;51.748;14.326;2023-11-21T03:38:45;5.25;;;4.75;;
51612;SDS011;37694;51.748;14.326;2023-11-21T03:41:10;5.45;;;4.95;;
51612;SDS011;37694;51.748;14.326;2023-11-21T03:43:36;5.68;;;4.63;;
51612;SDS011;37694;51.748;14.326;2023-11-21T03:46:02;5.15;;;4.63;;
51612;SDS011;37694;51.748;14.326;2023-11-21T03:48:29;5.47;;;4.75;;
51612;SDS011;37694;51.748;14.326;2023-11-21T03:50:54;5.07;;;4.57;;
51612;SDS011;37694;51.748;14.326;2023-11-21T03:53:20;5.25;;;4.65;;
51612;SDS011;37694;51.748;14.326;2023-11-21T03:55:46;5.60;;;4.65;;
51612;SDS011;37694;51.748;14.326;2023-11-21T03:58:11;5.15;;;4.53;;
51612;SDS011;37694;51.748;14.326;2023-11-21T04:00:37;4.88;;;4.38;;
51612;SDS011;37694;51.748;14.326;2023-11-21T04:03:03;4.82;;;4.43;;
51612;SDS011;37694;51.748;14.326;2023-11-21T04:05:29;6.20;;;4.80;;
51612;SDS011;37694;51.748;14.326;2023-11-21T04:07:56;7.53;;;4.72;;
51612;SDS011;37694;51.748;14.326;2023-11-21T04:10:21;5.05;;;4.53;;
51612;SDS011;37694;51.748;14.326;2023-11-21T04:12:47;4.05;;;3.72;;
51612;SDS011;37694;51.748;14.326;2023-11-21T04:15:13;6.78;;;4.47;;
51612;SDS011;37694;51.748;14.326;2023-11-21T04:17:39;4.43;;;3.90;;
51612;SDS011;37694;51.748;14.326;2023-11-21T04:20:06;5.20;;;4.00;;
51612;SDS011;37694;51.748;14.326;2023-11-21T04:22:40;5.32;;;4.55;;
51612;SDS011;37694;51.748;14.326;2023-11-21T04:25:09;5.07;;;4.50;;
51612;SDS011;37694;51.748;14.326;2023-11-21T04:27:36;4.53;;;4.03;;
51612;SDS011;37694;51.748;14.326;2023-11-21T04:30:03;6.25;;;4.30;;
51612;SDS011;37694;51.748;14.326;2023-11-21T04:32:30;5.78;;;4.30;;
51612;SDS011;37694;51.748;14.326;2023-11-21T04:34:56;5.82;;;4.13;;
51612;SDS011;37694;51.748;14.326;2023-11-21T04:37:21;4.25;;;3.85;;
51612;SDS011;37694;51.748;14.326;2023-11-21T04:39:47;6.07;;;4.03;;
51612;SDS011;37694;51.748;14.326;2023-11-21T04:42:13;5.22;;;4.72;;
51612;SDS011;37694;51.748;14.326;2023-11-21T04:44:39;5.90;;;3.95;;
51612;SDS011;37694;51.748;14.326;2023-11-21T04:47:06;4.53;;;4.13;;
51612;SDS011;37694;51.748;14.326;2023-11-21T04:49:32;3.67;;;3.40;;
51612;SDS011;37694;51.748;14.326;2023-11-21T04:51:58;4.75;;;4.10;;
51612;SDS011;37694;51.748;14.326;2023-11-21T04:54:24;4.85;;;3.95;;
51612;SDS011;37694;51.748;14.326;2023-11-21T04:56:50;8.15;;;3.95;;
51612;SDS011;37694;51.748;14.326;2023-11-21T04:59:16;4.50;;;4.00;;
51612;SDS011;37694;51.748;14.326;2023-11-21T05:01:41;4.72;;;4.13;;
51612;SDS011;37694;51.748;14.326;2023-11-21T05:04:07;4.20;;;3.70;;
51612;SDS011;37694;51.748;14.326;2023-11-21T05:06:33;4.28;;;3.88;;
51612;SDS011;37694;51.748;14.326;2023-11-21T05:08:59;5.68;;;3.92;;
51612;SDS011;37694;51.748;14.326;2023-11-21T05:11:26;4.35;;;3.90;;
51612;SDS011;37694;51.748;14.326;2023-11-21T05:13:52;4.50;;;3.67;;
51612;SDS011;37694;51.748;14.326;2023-11-21T05:16:18;6.18;;;3.67;;
51612;SDS011;37694;51.748;14.326;2023-11-21T05:18:45;4.57;;;4.10;;
51612;SDS011;37694;51.748;14.326;2023-11-21T05:21:10;4.97;;;4.05;;
51612;SDS011;37694;51.748;14.326;2023-11-21T05:23:36;8.63;;;4.13;;
51612;SDS011;37694;51.748;14.326;2023-11-21T05:26:02;4.10;;;3.70;;
51612;SDS011;37694;51.748;14.326;2023-11-21T05:28:28;3.70;;;3.20;;
51612;SDS011;37694;51.748;14.326;2023-11-21T05:30:54;4.25;;;3.80;;
51612;SDS011;37694;51.748;14.326;2023-11-21T05:33:20;4.80;;;3.40;;
51612;SDS011;37694;51.748;14.326;2023-11-21T05:35:46;4.00;;;3.60;;
51612;SDS011;37694;51.748;14.326;2023-11-21T05:38:13;5.28;;;3.60;;
51612;SDS011;37694;51.748;14.326;2023-11-21T05:40:39;4.85;;;3.92;;
51612;SDS011;37694;51.748;14.326;2023-11-21T05:43:05;7.40;;;4.00;;
51612;SDS011;37694;51.748;14.326;2023-11-21T05:45:31;5.93;;;3.75;;
51612;SDS011;37694;51.748;14.326;2023-11-21T05:47:58;8.88;;;4.38;;
51612;SDS011;37694;51.748;14.326;2023-11-21T05:50:24;11.88;;;4.63;;
51612;SDS011;37694;51.748;14.326;2023-11-21T05:52:50;33.78;;;7.78;;
51612;SDS011;37694;51.748;14.326;2023-11-21T05:55:15;30.17;;;6.72;;
51612;SDS011;37694;51.748;14.326;2023-11-21T05:57:43;18.63;;;5.60;;
51612;SDS011;37694;51.748;14.326;2023-11-21T06:00:10;14.77;;;5.65;;
51612;SDS011;37694;51.748;14.326;2023-11-21T06:02:47;14.90;;;5.30;;
51612;SDS011;37694;51.748;14.326;2023-11-21T06:05:16;19.00;;;6.20;;
51612;SDS011;37694;51.748;14.326;2023-11-21T06:07:43;19.15;;;5.20;;
51612;SDS011;37694;51.748;14.326;2023-11-21T06:10:10;21.30;;;5.53;;
51612;SDS011;37694;51.748;14.326;2023-11-21T06:12:38;33.65;;;6.05;;
51612;SDS011;37694;51.748;14.326;2023-11-21T06:15:05;18.45;;;6.50;;
51612;SDS011;37694;51.748;14.326;2023-11-21T06:17:34;38.25;;;6.95;;
51612;SDS011;37694;51.748;14.326;2023-11-21T06:20:04;26.77;;;5.93;;
51612;SDS011;37694;51.748;14.326;2023-11-21T06:22:39;17.90;;;5.00;;
51612;SDS011;37694;51.748;14.326;2023-11-21T06:25:06;22.58;;;5.85;;
51612;SDS011;37694;51.748;14.326;2023-11-21T06:27:37;14.88;;;5.70;;
51612;SDS011;37694;51.748;14.326;2023-11-21T06:30:05;23.05;;;5.63;;
51612;SDS011;37694;51.748;14.326;2023-11-21T06:32:38;17.63;;;4.65;;
51612;SDS011;37694;51.748;14.326;2023-11-21T06:35:05;20.00;;;5.20;;
51612;SDS011;37694;51.748;14.326;2023-11-21T06:37:31;22.00;;;5.70;;
51612;SDS011;37694;51.748;14.326;2023-11-21T06:39:58;22.90;;;5.50;;
51612;SDS011;37694;51.748;14.326;2023-11-21T06:42:25;29.13;;;6.40;;
51612;SDS011;37694;51.748;14.326;2023-11-21T06:44:51;24.48;;;5.55;;
51612;SDS011;37694;51.748;14.326;2023-11-21T06:47:18;27.98;;;5.38;;
51612;SDS011;37694;51.748;14.326;2023-11-21T06:49:49;23.95;;;5.13;;
51612;SDS011;37694;51.748;14.326;2023-11-21T06:52:15;18.02;;;5.03;;
51612;SDS011;37694;51.748;14.326;2023-11-21T06:54:41;15.40;;;5.20;;
51612;SDS011;37694;51.748;14.326;2023-11-21T06:57:07;16.23;;;5.47;;
51612;SDS011;37694;51.748;14.326;2023-11-21T06:59:33;19.08;;;4.70;;
51612;SDS011;37694;51.748;14.326;2023-11-21T07:01:59;16.77;;;4.97;;
51612;SDS011;37694;51.748;14.326;2023-11-21T07:04:25;17.33;;;5.10;;
51612;SDS011;37694;51.748;14.326;2023-11-21T07:06:51;26.27;;;5.07;;
51612;SDS011;37694;51.748;14.326;2023-11-21T07:09:18;8.57;;;4.65;;
51612;SDS011;37694;51.748;14.326;2023-11-21T07:11:47;13.93;;;4.68;;
51612;SDS011;37694;51.748;14.326;2023-11-21T07:14:15;23.48;;;4.85;;
51612;SDS011;37694;51.748;14.326;2023-11-21T07:16:42;9.93;;;4.20;;
51612;SDS011;37694;51.748;14.326;2023-11-21T07:19:08;14.65;;;4.35;;
51612;SDS011;37694;51.748;14.326;2023-11-21T07:21:36;9.90;;;4.32;;
51612;SDS011;37694;51.748;14.326;2023-11-21T07:24:02;10.40;;;4.15;;
51612;SDS011;37694;51.748;14.326;2023-11-21T07:26:29;15.32;;;5.40;;
51612;SDS011;37694;51.748;14.326;2023-11-21T07:28:55;16.65;;;5.38;;
51612;SDS011;37694;51.748;14.326;2023-11-21T07:31:22;10.82;;;4.43;;
51612;SDS011;37694;51.748;14.326;2023-11-21T07:33:49;14.93;;;4.65;;
51612;SDS011;37694;51.748;14.326;2023-11-21T07:36:16;9.75;;;4.45;;
51612;SDS011;37694;51.748;14.326;2023-11-21T07:38:43;7.60;;;4.97;;
51612;SDS011;37694;51.748;14.326;2023-11-21T07:41:10;7.60;;;4.85;;
51612;SDS011;37694;51.748;14.326;2023-11-21T07:43:36;7.85;;;4.47;;
51612;SDS011;37694;51.748;14.326;2023-11-21T07:46:02;12.90;;;5.03;;
51612;SDS011;37694;51.748;14.326;2023-11-21T07:48:31;10.18;;;4.88;;
51612;SDS011;37694;51.748;14.326;2023-11-21T07:50:58;11.38;;;4.43;;
51612;SDS011;37694;51.748;14.326;2023-11-21T07:53:27;12.45;;;5.88;;
51612;SDS011;37694;51.748;14.326;2023-11-21T07:55:55;8.88;;;4.60;;
51612;SDS011;37694;51.748;14.326;2023-11-21T07:58:21;9.57;;;4.72;;
51612;SDS011;37694;51.748;14.326;2023-11-21T08:00:47;9.15;;;4.75;;
51612;SDS011;37694;51.748;14.326;2023-11-21T08:03:16;11.60;;;4.93;;
51612;SDS011;37694;51.748;14.326;2023-11-21T08:05:42;9.85;;;4.82;;
51612;SDS011;37694;51.748;14.326;2023-11-21T08:08:08;8.57;;;4.63;;
51612;SDS011;37694;51.748;14.326;2023-11-21T08:10:34;11.25;;;4.72;;
51612;SDS011;37694;51.748;14.326;2023-11-21T08:13:00;17.90;;;5.05;;
51612;SDS011;37694;51.748;14.326;2023-11-21T08:15:26;16.83;;;5.20;;
51612;SDS011;37694;51.748;14.326;2023-11-21T08:17:52;9.07;;;4.93;;
51612;SDS011;37694;51.748;14.326;2023-11-21T08:20:18;9.65;;;4.50;;
51612;SDS011;37694;51.748;14.326;2023-11-21T08:22:44;36.97;;;6.05;;
51612;SDS011;37694;51.748;14.326;2023-11-21T08:25:12;6.80;;;4.63;;
51612;SDS011;37694;51.748;14.326;2023-11-21T08:27:38;5.85;;;4.13;;
51612;SDS011;37694;51.748;14.326;2023-11-21T08:30:04;9.05;;;4.75;;
51612;SDS011;37694;51.748;14.326;2023-11-21T08:32:30;8.40;;;4.00;;
51612;SDS011;37694;51.748;14.326;2023-11-21T08:34:57;6.13;;;3.85;;
51612;SDS011;37694;51.748;14.326;2023-11-21T08:37:23;8.25;;;4.18;;
51612;SDS011;37694;51.748;14.326;2023-11-21T08:39:49;6.60;;;4.40;;
51612;SDS011;37694;51.748;14.326;2023-11-21T08:42:15;7.03;;;4.45;;
51612;SDS011;37694;51.748;14.326;2023-11-21T08:44:40;6.28;;;4.28;;
51612;SDS011;37694;51.748;14.326;2023-11-21T08:47:06;5.13;;;4.57;;
51612;SDS011;37694;51.748;14.326;2023-11-21T08:49:32;8.07;;;5.40;;
51612;SDS011;37694;51.748;14.326;2023-11-21T08:51:58;9.18;;;5.15;;
51612;SDS011;37694;51.748;14.326;2023-11-21T08:54:27;8.13;;;5.35;;
51612;SDS011;37694;51.748;14.326;2023-11-21T08:56:53;7.13;;;4.53;;
51612;SDS011;37694;51.748;14.326;2023-11-21T08:59:20;7.65;;;6.00;;
51612;SDS011;37694;51.748;14.326;2023-11-21T09:01:46;7.00;;;5.35;;
51612;SDS011;37694;51.748;14.326;2023-11-21T09:04:12;6.15;;;4.47;;
51612;SDS011;37694;51.748;14.326;2023-11-21T09:06:39;6.78;;;4.45;;
51612;SDS011;37694;51.748;14.326;2023-11-21T09:09:05;7.43;;;4.93;;
51612;SDS011;37694;51.748;14.326;2023-11-21T09:11:33;9.20;;;5.15;;
51612;SDS011;37694;51.748;14.326;2023-11-21T09:14:00;6.93;;;4.32;;
51612;SDS011;37694;51.748;14.326;2023-11-21T09:16:26;10.20;;;4.85;;
51612;SDS011;37694;51.748;14.326;2023-11-21T09:18:52;11.07;;;4.32;;
51612;SDS011;37694;51.748;14.326;2023-11-21T09:21:17;11.18;;;4.78;;
51612;SDS011;37694;51.748;14.326;2023-11-21T09:23:46;6.32;;;4.38;;
51612;SDS011;37694;51.748;14.326;2023-11-21T09:26:13;9.88;;;5.35;;
51612;SDS011;37694;51.748;14.326;2023-11-21T09:28:41;9.00;;;5.00;;
51612;SDS011;37694;51.748;14.326;2023-11-21T09:31:11;8.00;;;5.07;;
51612;SDS011;37694;51.748;14.326;2023-11-21T09:33:37;8.50;;;5.05;;
51612;SDS011;37694;51.748;14.326;2023-11-21T09:36:03;7.07;;;4.63;;
51612;SDS011;37694;51.748;14.326;2023-11-21T09:38:30;7.82;;;4.88;;
51612;SDS011;37694;51.748;14.326;2023-11-21T09:40:56;10.65;;;5.32;;
51612;SDS011;37694;51.748;14.326;2023-11-21T09:43:24;7.13;;;5.13;;
51612;SDS011;37694;51.748;14.326;2023-11-21T09:46:02;7.25;;;5.18;;
51612;SDS011;37694;51.748;14.326;2023-11-21T09:48:31;7.93;;;4.88;;
51612;SDS011;37694;51.748;14.326;2023-11-21T09:50:58;8.50;;;4.88;;
51612;SDS011;37694;51.748;14.326;2023-11-21T09:53:28;6.35;;;4.55;;
51612;SDS011;37694;51.748;14.326;2023-11-21T09:55:57;9.23;;;4.75;;
51612;SDS011;37694;51.748;14.326;2023-11-21T09:58:25;6.50;;;4.80;;
51612;SDS011;37694;51.748;14.326;2023-11-21T10:00:55;12.60;;;5.50;;
51612;SDS011;37694;51.748;14.326;2023-11-21T10:03:24;6.85;;;5.10;;
51612;SDS011;37694;51.748;14.326;2023-11-21T10:05:50;7.40;;;5.00;;
51612;SDS011;37694;51.748;14.326;2023-11-21T10:08:18;6.10;;;4.95;;
51612;SDS011;37694;51.748;14.326;2023-11-21T10:10:49;5.93;;;4.72;;
51612;SDS011;37694;51.748;14.326;2023-11-21T10:13:18;5.40;;;4.57;;
51612;SDS011;37694;51.748;14.326;2023-11-21T10:15:48;7.72;;;5.00;;
51612;SDS011;37694;51.748;14.326;2023-11-21T10:18:16;6.53;;;4.65;;
51612;SDS011;37694;51.748;14.326;2023-11-21T10:20:42;6.10;;;4.22;;
51612;SDS011;37694;51.748;14.326;2023-11-21T10:23:11;6.72;;;4.95;;
51612;SDS011;37694;51.748;14.326;2023-11-21T10:25:38;8.80;;;4.88;;
51612;SDS011;37694;51.748;14.326;2023-11-21T10:28:04;7.55;;;4.90;;
51612;SDS011;37694;51.748;14.326;2023-11-21T10:30:33;6.07;;;4.85;;
51612;SDS011;37694;51.748;14.326;2023-11-21T10:33:01;5.97;;;5.00;;
51612;SDS011;37694;51.748;14.326;2023-11-21T10:35:47;7.25;;;5.05;;
51612;SDS011;37694;51.748;14.326;2023-11-21T10:38:19;6.60;;;4.95;;
51612;SDS011;37694;51.748;14.326;2023-11-21T10:40:49;9.10;;;4.85;;
51612;SDS011;37694;51.748;14.326;2023-11-21T10:43:16;5.28;;;4.72;;
51612;SDS011;37694;51.748;14.326;2023-11-21T10:45:43;5.25;;;4.57;;
51612;SDS011;37694;51.748;14.326;2023-11-21T10:48:10;5.57;;;4.70;;
51612;SDS011;37694;51.748;14.326;2023-11-21T10:50:41;5.35;;;4.25;;
51612;SDS011;37694;51.748;14.326;2023-11-21T10:53:07;7.22;;;4.78;;
51612;SDS011;37694;51.748;14.326;2023-11-21T10:55:33;6.00;;;4.38;;
51612;SDS011;37694;51.748;14.326;2023-11-21T10:58:00;8.27;;;4.97;;
51612;SDS011;37694;51.748;14.326;2023-11-21T11:00:28;8.60;;;4.68;;
51612;SDS011;37694;51.748;14.326;2023-11-21T11:02:54;7.40;;;4.55;;
51612;SDS011;37694;51.748;14.326;2023-11-21T11:05:21;7.05;;;4.97;;
51612;SDS011;37694;51.748;14.326;2023-11-21T11:07:50;10.05;;;4.80;;
51612;SDS011;37694;51.748;14.326;2023-11-21T11:10:20;10.27;;;4.60;;
51612;SDS011;37694;51.748;14.326;2023-11-21T11:12:47;13.93;;;4.95;;
51612;SDS011;37694;51.748;14.326;2023-11-21T11:15:15;11.75;;;4.47;;
51612;SDS011;37694;51.748;14.326;2023-11-21T11:17:41;5.88;;;4.30;;
51612;SDS011;37694;51.748;14.326;2023-11-21T11:20:10;9.48;;;4.07;;
51612;SDS011;37694;51.748;14.326;2023-11-21T11:22:59;6.32;;;4.57;;
51612;SDS011;37694;51.748;14.326;2023-11-21T11:28:42;5.50;;;4.55;;
51612;SDS011;37694;51.748;14.326;2023-11-21T11:37:03;8.30;;;4.38;;
51612;SDS011;37694;51.748;14.326;2023-11-21T11:42:02;6.03;;;4.28;;
51612;SDS011;37694;51.748;14.326;2023-11-21T11:47:24;5.50;;;4.63;;
51612;SDS011;37694;51.748;14.326;2023-11-21T11:50:12;4.88;;;4.32;;
51612;SDS011;37694;51.748;14.326;2023-11-21T11:55:19;5.15;;;4.25;;
51612;SDS011;37694;51.748;14.326;2023-11-21T11:57:47;4.05;;;3.50;;
51612;SDS011;37694;51.748;14.326;2023-11-21T12:00:17;6.82;;;4.25;;
51612;SDS011;37694;51.748;14.326;2023-11-21T12:02:53;6.93;;;4.60;;
51612;SDS011;37694;51.748;14.326;2023-11-21T12:05:22;6.22;;;4.22;;
51612;SDS011;37694;51.748;14.326;2023-11-21T12:07:55;5.50;;;3.80;;
51612;SDS011;37694;51.748;14.326;2023-11-21T12:10:26;5.70;;;4.30;;
51612;SDS011;37694;51.748;14.326;2023-11-21T12:12:54;7.25;;;4.57;;
51612;SDS011;37694;51.748;14.326;2023-11-21T12:15:20;7.78;;;4.68;;
51612;SDS011;37694;51.748;14.326;2023-11-21T12:17:47;4.80;;;4.03;;
51612;SDS011;37694;51.748;14.326;2023-11-21T12:20:15;4.10;;;3.53;;
51612;SDS011;37694;51.748;14.326;2023-11-21T12:22:44;4.60;;;3.70;;
51612;SDS011;37694;51.748;14.326;2023-11-21T12:27:47;6.93;;;4.45;;
51612;SDS011;37694;51.748;14.326;2023-11-21T12:30:20;5.35;;;4.30;;
51612;SDS011;37694;51.748;14.326;2023-11-21T12:32:50;8.52;;;3.80;;
51612;SDS011;37694;51.748;14.326;2023-11-21T12:35:18;5.60;;;4.38;;
51612;SDS011;37694;51.748;14.326;2023-11-21T12:37:46;4.60;;;3.45;;
51612;SDS011;37694;51.748;14.326;2023-11-21T12:40:13;5.63;;;4.47;;
51612;SDS011;37694;51.748;14.326;2023-11-21T12:42:43;4.78;;;3.50;;
51612;SDS011;37694;51.748;14.326;2023-11-21T12:47:40;5.68;;;4.05;;
51612;SDS011;37694;51.748;14.326;2023-11-21T12:50:07;5.10;;;3.60;;
51612;SDS011;37694;51.748;14.326;2023-11-21T12:52:40;3.95;;;3.42;;
51612;SDS011;37694;51.748;14.326;2023-11-21T12:55:08;4.38;;;3.40;;
51612;SDS011;37694;51.748;14.326;2023-11-21T12:57:34;4.03;;;3.50;;
51612;SDS011;37694;51.748;14.326;2023-11-21T13:00:03;5.25;;;4.45;;
51612;SDS011;37694;51.748;14.326;2023-11-21T13:02:37;4.95;;;3.70;;
51612;SDS011;37694;51.748;14.326;2023-11-21T13:05:03;5.13;;;3.70;;
51612;SDS011;37694;51.748;14.326;2023-11-21T13:07:43;3.97;;;3.58;;
51612;SDS011;37694;51.748;14.326;2023-11-21T13:10:12;3.88;;;3.20;;
51612;SDS011;37694;51.748;14.326;2023-11-21T13:12:45;5.15;;;4.00;;
51612;SDS011;37694;51.748;14.326;2023-11-21T13:15:16;4.63;;;3.60;;
51612;SDS011;37694;51.748;14.326;2023-11-21T13:17:43;4.43;;;3.92;;
51612;SDS011;37694;51.748;14.326;2023-11-21T13:20:10;4.65;;;3.40;;
51612;SDS011;37694;51.748;14.326;2023-11-21T13:22:53;4.05;;;3.53;;
51612;SDS011;37694;51.748;14.326;2023-11-21T13:25:23;4.33;;;3.30;;
51612;SDS011;37694;51.748;14.326;2023-11-21T13:27:59;5.60;;;4.20;;
51612;SDS011;37694;51.748;14.326;2023-11-21T13:30:26;5.30;;;3.70;;
51612;SDS011;37694;51.748;14.326;2023-11-21T13:32:53;3.85;;;3.17;;
51612;SDS011;37694;51.748;14.326;2023-11-21T13:35:22;4.03;;;3.45;;
51612;SDS011;37694;51.748;14.326;2023-11-21T13:37:56;3.78;;;3.17;;
51612;SDS011;37694;51.748;14.326;2023-11-21T13:40:25;4.60;;;3.85;;
51612;SDS011;37694;51.748;14.326;2023-11-21T13:42:54;4.82;;;3.65;;
51612;SDS011;37694;51.748;14.326;2023-11-21T13:45:24;7.03;;;3.80;;
51612;SDS011;37694;51.748;14.326;2023-11-21T13:47:52;4.47;;;3.42;;
51612;SDS011;37694;51.748;14.326;2023-11-21T13:50:30;4.80;;;2.97;;
51612;SDS011;37694;51.748;14.326;2023-11-21T13:53:00;4.45;;;3.55;;
51612;SDS011;37694;51.748;14.326;2023-11-21T13:55:41;4.75;;;3.58;;
51612;SDS011;37694;51.748;14.326;2023-11-21T13:58:07;3.50;;;3.20;;
51612;SDS011;37694;51.748;14.326;2023-11-21T14:00:36;4.97;;;3.30;;
51612;SDS011;37694;51.748;14.326;2023-11-21T14:03:12;3.67;;;3.28;;
51612;SDS011;37694;51.748;14.326;2023-11-21T14:05:45;3.40;;;3.10;;
51612;SDS011;37694;51.748;14.326;2023-11-21T14:08:14;3.92;;;2.88;;
51612;SDS011;37694;51.748;14.326;2023-11-21T14:10:45;4.65;;;3.25;;
51612;SDS011;37694;51.748;14.326;2023-11-21T14:13:15;3.20;;;2.90;;
51612;SDS011;37694;51.748;14.326;2023-11-21T14:15:42;4.05;;;3.22;;
51612;SDS011;37694;51.748;14.326;2023-11-21T14:18:11;3.80;;;3.03;;
51612;SDS011;37694;51.748;14.326;2023-11-21T14:20:39;4.32;;;3.00;;
51612;SDS011;37694;51.748;14.326;2023-11-21T14:23:06;4.28;;;3.28;;
51612;SDS011;37694;51.748;14.326;2023-11-21T14:25:35;3.20;;;2.90;;
51612;SDS011;37694;51.748;14.326;2023-11-21T14:28:02;3.63;;;3.30;;
51612;SDS011;37694;51.748;14.326;2023-11-21T14:30:31;3.28;;;2.78;;
51612;SDS011;37694;51.748;14.326;2023-11-21T14:33:01;8.35;;;3.10;;
51612;SDS011;37694;51.748;14.326;2023-11-21T14:35:27;6.72;;;2.92;;
51612;SDS011;37694;51.748;14.326;2023-11-21T14:37:57;8.35;;;3.72;;
51612;SDS011;37694;51.748;14.326;2023-11-21T14:40:27;8.20;;;3.10;;
51612;SDS011;37694;51.748;14.326;2023-11-21T14:42:58;6.72;;;3.15;;
51612;SDS011;37694;51.748;14.326;2023-11-21T14:45:25;12.43;;;2.70;;
51612;SDS011;37694;51.748;14.326;2023-11-21T14:47:52;10.25;;;3.40;;
51612;SDS011;37694;51.748;14.326;2023-11-21T14:50:46;3.35;;;2.63;;
51612;SDS011;37694;51.748;14.326;2023-11-21T14:53:32;7.00;;;3.10;;
51612;SDS011;37694;51.748;14.326;2023-11-21T14:56:21;5.43;;;2.60;;
51612;SDS011;37694;51.748;14.326;2023-11-21T14:58:59;7.13;;;2.95;;